sensor_id;sensor_type;location;lat;lon;timestamp;temperature;humidity
36374;DHT22;22399;51.346;12.372;2023-04-25T00:00:25;8.30;93.30
36374;DHT22;22399;51.346;12.372;2023-04-25T00:02:54;8.40;93.40
36374;DHT22;22399;51.346;12.372;2023-04-25T00:05:24;8.40;93.60
36374;DHT22;22399;51.346;12.372;2023-04-25T00:07:53;8.40;93.70
36374;DHT22;22399;51.346;12.372;2023-04-25T00:10:21;8.40;93.40
36374;DHT22;22399;51.346;12.372;2023-04-25T00:12:49;8.40;93.90
36374;DHT22;22399;51.346;12.372;2023-04-25T00:15:19;8.40;94.10
36374;DHT22;22399;51.346;12.372;2023-04-25T00:17:48;8.30;93.70
36374;DHT22;22399;51.346;12.372;2023-04-25T00:20:16;8.20;94.20
36374;DHT22;22399;51.346;12.372;2023-04-25T00:22:44;8.10;94.30
36374;DHT22;22399;51.346;12.372;2023-04-25T00:25:12;8.10;94.60
36374;DHT22;22399;51.346;12.372;2023-04-25T00:27:40;8.00;95.00
36374;DHT22;22399;51.346;12.372;2023-04-25T00:30:08;7.80;94.50
36374;DHT22;22399;51.346;12.372;2023-04-25T00:32:38;7.70;95.00
36374;DHT22;22399;51.346;12.372;2023-04-25T00:35:06;7.70;95.30
36374;DHT22;22399;51.346;12.372;2023-04-25T00:37:35;7.60;95.20
36374;DHT22;22399;51.346;12.372;2023-04-25T00:40:04;7.50;94.60
36374;DHT22;22399;51.346;12.372;2023-04-25T00:42:33;7.50;94.60
36374;DHT22;22399;51.346;12.372;2023-04-25T00:45:03;7.40;94.90
36374;DHT22;22399;51.346;12.372;2023-04-25T00:47:32;7.40;95.10
36374;DHT22;22399;51.346;12.372;2023-04-25T00:50:02;7.30;95.00
36374;DHT22;22399;51.346;12.372;2023-04-25T00:52:30;7.30;95.60
36374;DHT22;22399;51.346;12.372;2023-04-25T00:54:58;7.20;96.20
36374;DHT22;22399;51.346;12.372;2023-04-25T00:57:27;7.20;98.00
36374;DHT22;22399;51.346;12.372;2023-04-25T00:59:55;7.20;98.00
36374;DHT22;22399;51.346;12.372;2023-04-25T01:02:24;7.20;98.00
36374;DHT22;22399;51.346;12.372;2023-04-25T01:04:53;7.20;97.90
36374;DHT22;22399;51.346;12.372;2023-04-25T01:07:23;7.10;98.50
36374;DHT22;22399;51.346;12.372;2023-04-25T01:09:51;7.10;98.20
36374;DHT22;22399;51.346;12.372;2023-04-25T01:12:19;7.10;98.90
36374;DHT22;22399;51.346;12.372;2023-04-25T01:14:48;7.10;99.80
36374;DHT22;22399;51.346;12.372;2023-04-25T01:17:17;7.20;98.80
36374;DHT22;22399;51.346;12.372;2023-04-25T01:19:45;7.10;98.90
36374;DHT22;22399;51.346;12.372;2023-04-25T01:22:17;7.10;95.90
36374;DHT22;22399;51.346;12.372;2023-04-25T01:24:46;7.00;95.50
36374;DHT22;22399;51.346;12.372;2023-04-25T01:27:14;7.00;95.40
36374;DHT22;22399;51.346;12.372;2023-04-25T01:29:43;6.90;95.80
36374;DHT22;22399;51.346;12.372;2023-04-25T01:32:11;6.90;93.30
36374;DHT22;22399;51.346;12.372;2023-04-25T01:34:41;6.90;93.10
36374;DHT22;22399;51.346;12.372;2023-04-25T01:37:09;6.90;93.50
36374;DHT22;22399;51.346;12.372;2023-04-25T01:39:38;6.90;95.00
36374;DHT22;22399;51.346;12.372;2023-04-25T01:42:06;6.80;95.90
36374;DHT22;22399;51.346;12.372;2023-04-25T01:44:35;6.70;93.40
36374;DHT22;22399;51.346;12.372;2023-04-25T01:47:04;6.80;93.50
36374;DHT22;22399;51.346;12.372;2023-04-25T01:49:33;6.80;92.70
36374;DHT22;22399;51.346;12.372;2023-04-25T01:52:01;6.70;92.40
36374;DHT22;22399;51.346;12.372;2023-04-25T01:54:29;6.70;92.70
36374;DHT22;22399;51.346;12.372;2023-04-25T01:56:59;6.80;93.00
36374;DHT22;22399;51.346;12.372;2023-04-25T01:59:29;6.70;92.60
36374;DHT22;22399;51.346;12.372;2023-04-25T02:02:15;6.80;93.50
36374;DHT22;22399;51.346;12.372;2023-04-25T02:04:44;6.80;93.70
36374;DHT22;22399;51.346;12.372;2023-04-25T02:07:13;6.80;93.50
36374;DHT22;22399;51.346;12.372;2023-04-25T02:09:50;6.80;93.90
36374;DHT22;22399;51.346;12.372;2023-04-25T02:12:21;6.70;94.10
36374;DHT22;22399;51.346;12.372;2023-04-25T02:15:03;6.70;93.80
36374;DHT22;22399;51.346;12.372;2023-04-25T02:17:47;6.70;94.10
36374;DHT22;22399;51.346;12.372;2023-04-25T02:20:15;6.70;94.10
36374;DHT22;22399;51.346;12.372;2023-04-25T02:22:44;6.70;93.80
36374;DHT22;22399;51.346;12.372;2023-04-25T02:25:12;6.70;93.70
36374;DHT22;22399;51.346;12.372;2023-04-25T02:27:41;6.60;93.80
36374;DHT22;22399;51.346;12.372;2023-04-25T02:30:10;6.60;94.10
36374;DHT22;22399;51.346;12.372;2023-04-25T02:32:38;6.60;94.20
36374;DHT22;22399;51.346;12.372;2023-04-25T02:35:08;6.60;94.60
36374;DHT22;22399;51.346;12.372;2023-04-25T02:37:38;6.60;94.30
36374;DHT22;22399;51.346;12.372;2023-04-25T02:40:06;6.60;94.70
36374;DHT22;22399;51.346;12.372;2023-04-25T02:42:35;6.60;95.30
36374;DHT22;22399;51.346;12.372;2023-04-25T02:45:05;6.60;95.00
36374;DHT22;22399;51.346;12.372;2023-04-25T02:47:33;6.60;94.90
36374;DHT22;22399;51.346;12.372;2023-04-25T02:50:02;6.60;94.60
36374;DHT22;22399;51.346;12.372;2023-04-25T02:52:35;6.50;94.80
36374;DHT22;22399;51.346;12.372;2023-04-25T02:55:12;6.40;95.60
36374;DHT22;22399;51.346;12.372;2023-04-25T02:57:41;6.50;97.00
36374;DHT22;22399;51.346;12.372;2023-04-25T03:00:14;6.40;94.60
36374;DHT22;22399;51.346;12.372;2023-04-25T03:02:42;6.40;94.70
36374;DHT22;22399;51.346;12.372;2023-04-25T03:05:11;6.40;94.60
36374;DHT22;22399;51.346;12.372;2023-04-25T03:07:39;6.30;94.70
36374;DHT22;22399;51.346;12.372;2023-04-25T03:10:09;6.30;94.60
36374;DHT22;22399;51.346;12.372;2023-04-25T03:12:38;6.20;94.80
36374;DHT22;22399;51.346;12.372;2023-04-25T03:15:07;6.30;95.10
36374;DHT22;22399;51.346;12.372;2023-04-25T03:17:36;6.20;95.10
36374;DHT22;22399;51.346;12.372;2023-04-25T03:20:06;6.20;95.10
36374;DHT22;22399;51.346;12.372;2023-04-25T03:22:36;6.20;95.40
36374;DHT22;22399;51.346;12.372;2023-04-25T03:25:05;6.20;95.00
36374;DHT22;22399;51.346;12.372;2023-04-25T03:27:34;6.20;94.90
36374;DHT22;22399;51.346;12.372;2023-04-25T03:30:02;6.20;95.30
36374;DHT22;22399;51.346;12.372;2023-04-25T03:32:31;6.10;95.60
36374;DHT22;22399;51.346;12.372;2023-04-25T03:35:00;6.10;96.10
36374;DHT22;22399;51.346;12.372;2023-04-25T03:37:30;6.00;95.70
36374;DHT22;22399;51.346;12.372;2023-04-25T03:39:58;6.10;96.30
36374;DHT22;22399;51.346;12.372;2023-04-25T03:42:43;6.00;96.90
36374;DHT22;22399;51.346;12.372;2023-04-25T03:45:12;5.90;96.90
36374;DHT22;22399;51.346;12.372;2023-04-25T03:47:40;5.90;97.50
36374;DHT22;22399;51.346;12.372;2023-04-25T03:50:10;6.00;97.20
36374;DHT22;22399;51.346;12.372;2023-04-25T03:52:38;6.00;97.90
36374;DHT22;22399;51.346;12.372;2023-04-25T03:55:08;6.00;99.40
36374;DHT22;22399;51.346;12.372;2023-04-25T03:57:36;5.70;98.60
36374;DHT22;22399;51.346;12.372;2023-04-25T04:00:05;6.00;99.90
36374;DHT22;22399;51.346;12.372;2023-04-25T04:02:41;5.90;98.50
36374;DHT22;22399;51.346;12.372;2023-04-25T04:05:13;5.90;99.20
36374;DHT22;22399;51.346;12.372;2023-04-25T04:07:48;5.80;99.90
36374;DHT22;22399;51.346;12.372;2023-04-25T04:10:17;5.90;99.90
36374;DHT22;22399;51.346;12.372;2023-04-25T04:12:45;5.70;99.90
36374;DHT22;22399;51.346;12.372;2023-04-25T04:15:13;5.40;98.60
36374;DHT22;22399;51.346;12.372;2023-04-25T04:17:43;5.50;97.90
36374;DHT22;22399;51.346;12.372;2023-04-25T04:20:15;5.80;97.50
36374;DHT22;22399;51.346;12.372;2023-04-25T04:22:43;5.80;97.50
36374;DHT22;22399;51.346;12.372;2023-04-25T04:25:13;5.90;96.60
36374;DHT22;22399;51.346;12.372;2023-04-25T04:28:07;5.90;97.00
36374;DHT22;22399;51.346;12.372;2023-04-25T04:30:49;5.90;96.80
36374;DHT22;22399;51.346;12.372;2023-04-25T04:33:18;6.00;97.10
36374;DHT22;22399;51.346;12.372;2023-04-25T04:35:53;5.90;96.70
36374;DHT22;22399;51.346;12.372;2023-04-25T04:38:22;6.00;96.50
36374;DHT22;22399;51.346;12.372;2023-04-25T04:40:52;6.00;96.10
36374;DHT22;22399;51.346;12.372;2023-04-25T04:43:39;5.90;96.30
36374;DHT22;22399;51.346;12.372;2023-04-25T04:46:41;6.00;96.50
36374;DHT22;22399;51.346;12.372;2023-04-25T04:49:30;6.00;95.40
36374;DHT22;22399;51.346;12.372;2023-04-25T04:52:19;6.00;96.40
36374;DHT22;22399;51.346;12.372;2023-04-25T04:54:55;6.10;95.40
36374;DHT22;22399;51.346;12.372;2023-04-25T04:57:52;6.20;97.50
36374;DHT22;22399;51.346;12.372;2023-04-25T05:00:40;6.10;94.60
36374;DHT22;22399;51.346;12.372;2023-04-25T05:03:28;6.20;96.80
36374;DHT22;22399;51.346;12.372;2023-04-25T05:06:25;6.20;93.90
36374;DHT22;22399;51.346;12.372;2023-04-25T05:09:14;6.40;96.50
36374;DHT22;22399;51.346;12.372;2023-04-25T05:11:54;6.80;94.50
36374;DHT22;22399;51.346;12.372;2023-04-25T05:14:41;7.20;95.50
36374;DHT22;22399;51.346;12.372;2023-04-25T05:17:30;7.40;94.50
36374;DHT22;22399;51.346;12.372;2023-04-25T05:20:18;7.60;93.30
36374;DHT22;22399;51.346;12.372;2023-04-25T05:22:58;7.90;93.20
36374;DHT22;22399;51.346;12.372;2023-04-25T05:25:57;8.10;93.70
36374;DHT22;22399;51.346;12.372;2023-04-25T05:28:34;8.30;93.80
36374;DHT22;22399;51.346;12.372;2023-04-25T05:31:40;8.40;93.50
36374;DHT22;22399;51.346;12.372;2023-04-25T05:34:12;8.70;93.00
36374;DHT22;22399;51.346;12.372;2023-04-25T05:37:02;8.80;92.10
36374;DHT22;22399;51.346;12.372;2023-04-25T05:39:34;8.90;91.90
36374;DHT22;22399;51.346;12.372;2023-04-25T05:42:36;8.90;92.30
36374;DHT22;22399;51.346;12.372;2023-04-25T05:45:22;9.00;91.70
36374;DHT22;22399;51.346;12.372;2023-04-25T05:48:03;9.30;91.50
36374;DHT22;22399;51.346;12.372;2023-04-25T05:50:50;9.40;90.80
36374;DHT22;22399;51.346;12.372;2023-04-25T05:53:54;9.60;90.70
36374;DHT22;22399;51.346;12.372;2023-04-25T05:56:22;9.80;90.80
36374;DHT22;22399;51.346;12.372;2023-04-25T05:58:53;9.90;90.40
36374;DHT22;22399;51.346;12.372;2023-04-25T06:01:22;10.10;89.20
36374;DHT22;22399;51.346;12.372;2023-04-25T06:03:51;10.30;89.80
36374;DHT22;22399;51.346;12.372;2023-04-25T06:06:20;10.30;89.40
36374;DHT22;22399;51.346;12.372;2023-04-25T06:08:48;10.40;87.20
36374;DHT22;22399;51.346;12.372;2023-04-25T06:11:17;10.50;87.30
36374;DHT22;22399;51.346;12.372;2023-04-25T06:13:45;10.50;85.10
36374;DHT22;22399;51.346;12.372;2023-04-25T06:16:17;10.70;84.30
36374;DHT22;22399;51.346;12.372;2023-04-25T06:18:45;11.30;86.40
36374;DHT22;22399;51.346;12.372;2023-04-25T06:21:14;12.00;86.10
36374;DHT22;22399;51.346;12.372;2023-04-25T06:23:43;12.80;83.00
36374;DHT22;22399;51.346;12.372;2023-04-25T06:26:18;13.70;80.80
36374;DHT22;22399;51.346;12.372;2023-04-25T06:28:47;14.50;77.60
36374;DHT22;22399;51.346;12.372;2023-04-25T06:31:17;14.90;91.10
36374;DHT22;22399;51.346;12.372;2023-04-25T06:33:46;15.40;74.30
36374;DHT22;22399;51.346;12.372;2023-04-25T06:36:17;14.90;73.60
36374;DHT22;22399;51.346;12.372;2023-04-25T06:38:47;14.40;74.10
36374;DHT22;22399;51.346;12.372;2023-04-25T06:41:16;13.70;73.80
36374;DHT22;22399;51.346;12.372;2023-04-25T06:43:44;13.00;74.70
36374;DHT22;22399;51.346;12.372;2023-04-25T06:46:24;12.50;75.50
36374;DHT22;22399;51.346;12.372;2023-04-25T06:48:54;12.10;76.00
36374;DHT22;22399;51.346;12.372;2023-04-25T06:51:22;11.70;76.60
36374;DHT22;22399;51.346;12.372;2023-04-25T06:53:53;11.60;77.30
36374;DHT22;22399;51.346;12.372;2023-04-25T06:56:30;11.40;77.60
36374;DHT22;22399;51.346;12.372;2023-04-25T06:59:06;11.40;78.40
36374;DHT22;22399;51.346;12.372;2023-04-25T07:01:38;11.50;85.70
36374;DHT22;22399;51.346;12.372;2023-04-25T07:04:15;11.50;86.70
36374;DHT22;22399;51.346;12.372;2023-04-25T07:06:48;11.30;87.20
36374;DHT22;22399;51.346;12.372;2023-04-25T07:09:22;11.20;86.30
36374;DHT22;22399;51.346;12.372;2023-04-25T07:11:51;11.10;88.10
36374;DHT22;22399;51.346;12.372;2023-04-25T07:14:19;11.00;87.50
36374;DHT22;22399;51.346;12.372;2023-04-25T07:16:49;10.90;87.20
36374;DHT22;22399;51.346;12.372;2023-04-25T07:19:18;10.80;86.20
36374;DHT22;22399;51.346;12.372;2023-04-25T07:21:46;10.80;90.10
36374;DHT22;22399;51.346;12.372;2023-04-25T07:24:15;10.80;88.10
36374;DHT22;22399;51.346;12.372;2023-04-25T07:26:46;10.70;88.60
36374;DHT22;22399;51.346;12.372;2023-04-25T07:29:17;10.70;90.20
36374;DHT22;22399;51.346;12.372;2023-04-25T07:31:45;10.60;87.50
36374;DHT22;22399;51.346;12.372;2023-04-25T07:34:15;10.60;88.40
36374;DHT22;22399;51.346;12.372;2023-04-25T07:36:43;10.70;87.40
36374;DHT22;22399;51.346;12.372;2023-04-25T07:39:13;10.70;88.20
36374;DHT22;22399;51.346;12.372;2023-04-25T07:41:41;10.50;87.90
36374;DHT22;22399;51.346;12.372;2023-04-25T07:44:16;10.40;86.60
36374;DHT22;22399;51.346;12.372;2023-04-25T07:46:44;10.40;88.00
36374;DHT22;22399;51.346;12.372;2023-04-25T07:49:14;10.30;89.10
36374;DHT22;22399;51.346;12.372;2023-04-25T07:51:44;10.30;87.80
36374;DHT22;22399;51.346;12.372;2023-04-25T07:54:15;10.30;88.50
36374;DHT22;22399;51.346;12.372;2023-04-25T07:56:49;10.20;87.40
36374;DHT22;22399;51.346;12.372;2023-04-25T07:59:25;10.10;88.30
36374;DHT22;22399;51.346;12.372;2023-04-25T08:01:59;9.90;89.20
36374;DHT22;22399;51.346;12.372;2023-04-25T08:04:30;9.80;89.20
36374;DHT22;22399;51.346;12.372;2023-04-25T08:07:02;9.70;89.30
36374;DHT22;22399;51.346;12.372;2023-04-25T08:09:38;9.70;90.30
36374;DHT22;22399;51.346;12.372;2023-04-25T08:12:12;9.60;89.30
36374;DHT22;22399;51.346;12.372;2023-04-25T08:14:40;9.70;86.70
36374;DHT22;22399;51.346;12.372;2023-04-25T08:17:09;9.80;85.50
36374;DHT22;22399;51.346;12.372;2023-04-25T08:19:41;10.00;86.00
36374;DHT22;22399;51.346;12.372;2023-04-25T08:22:18;10.20;86.50
36374;DHT22;22399;51.346;12.372;2023-04-25T08:24:52;10.30;85.10
36374;DHT22;22399;51.346;12.372;2023-04-25T08:27:21;10.40;85.30
36374;DHT22;22399;51.346;12.372;2023-04-25T08:29:50;10.60;85.20
36374;DHT22;22399;51.346;12.372;2023-04-25T08:32:19;10.90;84.60
36374;DHT22;22399;51.346;12.372;2023-04-25T08:35:15;11.00;84.20
36374;DHT22;22399;51.346;12.372;2023-04-25T08:37:44;11.30;83.60
36374;DHT22;22399;51.346;12.372;2023-04-25T08:40:14;11.40;82.50
36374;DHT22;22399;51.346;12.372;2023-04-25T08:42:54;11.30;81.50
36374;DHT22;22399;51.346;12.372;2023-04-25T08:45:23;11.20;80.10
36374;DHT22;22399;51.346;12.372;2023-04-25T08:47:52;11.20;80.80
36374;DHT22;22399;51.346;12.372;2023-04-25T08:50:23;11.20;81.50
36374;DHT22;22399;51.346;12.372;2023-04-25T08:52:53;11.40;82.80
36374;DHT22;22399;51.346;12.372;2023-04-25T08:55:22;11.60;81.90
36374;DHT22;22399;51.346;12.372;2023-04-25T08:57:55;11.80;82.20
36374;DHT22;22399;51.346;12.372;2023-04-25T09:00:24;12.00;81.90
36374;DHT22;22399;51.346;12.372;2023-04-25T09:02:52;12.10;80.80
36374;DHT22;22399;51.346;12.372;2023-04-25T09:05:23;12.10;77.30
36374;DHT22;22399;51.346;12.372;2023-04-25T09:07:55;12.20;77.10
36374;DHT22;22399;51.346;12.372;2023-04-25T09:10:25;12.40;77.60
36374;DHT22;22399;51.346;12.372;2023-04-25T09:13:02;12.70;78.90
36374;DHT22;22399;51.346;12.372;2023-04-25T09:15:47;13.00;78.00
36374;DHT22;22399;51.346;12.372;2023-04-25T09:18:35;13.40;76.30
36374;DHT22;22399;51.346;12.372;2023-04-25T09:21:06;13.40;74.70
36374;DHT22;22399;51.346;12.372;2023-04-25T09:23:43;13.50;73.50
36374;DHT22;22399;51.346;12.372;2023-04-25T09:26:13;13.30;74.80
36374;DHT22;22399;51.346;12.372;2023-04-25T09:28:43;13.30;74.20
36374;DHT22;22399;51.346;12.372;2023-04-25T09:31:20;13.50;73.40
36374;DHT22;22399;51.346;12.372;2023-04-25T09:33:50;13.40;72.60
36374;DHT22;22399;51.346;12.372;2023-04-25T09:36:29;13.20;72.70
36374;DHT22;22399;51.346;12.372;2023-04-25T09:39:18;13.00;72.90
36374;DHT22;22399;51.346;12.372;2023-04-25T09:41:56;12.70;73.10
36374;DHT22;22399;51.346;12.372;2023-04-25T09:44:24;12.40;73.70
36374;DHT22;22399;51.346;12.372;2023-04-25T09:46:54;12.10;74.40
36374;DHT22;22399;51.346;12.372;2023-04-25T09:49:25;11.80;75.90
36374;DHT22;22399;51.346;12.372;2023-04-25T09:52:08;11.70;76.20
36374;DHT22;22399;51.346;12.372;2023-04-25T09:54:56;11.70;76.10
36374;DHT22;22399;51.346;12.372;2023-04-25T09:57:29;11.80;75.80
36374;DHT22;22399;51.346;12.372;2023-04-25T09:59:58;12.10;75.40
36374;DHT22;22399;51.346;12.372;2023-04-25T10:02:40;12.40;75.60
36374;DHT22;22399;51.346;12.372;2023-04-25T10:05:18;12.70;75.50
36374;DHT22;22399;51.346;12.372;2023-04-25T10:07:48;12.70;75.10
36374;DHT22;22399;51.346;12.372;2023-04-25T10:10:16;12.40;74.30
36374;DHT22;22399;51.346;12.372;2023-04-25T10:12:46;12.10;75.20
36374;DHT22;22399;51.346;12.372;2023-04-25T10:15:15;12.00;75.70
36374;DHT22;22399;51.346;12.372;2023-04-25T10:17:44;12.00;75.40
36374;DHT22;22399;51.346;12.372;2023-04-25T10:20:13;11.90;75.50
36374;DHT22;22399;51.346;12.372;2023-04-25T10:22:41;11.80;75.20
36374;DHT22;22399;51.346;12.372;2023-04-25T10:25:11;11.70;75.60
36374;DHT22;22399;51.346;12.372;2023-04-25T10:27:40;11.70;75.30
36374;DHT22;22399;51.346;12.372;2023-04-25T10:30:09;12.10;75.80
36374;DHT22;22399;51.346;12.372;2023-04-25T10:32:39;12.50;75.10
36374;DHT22;22399;51.346;12.372;2023-04-25T10:35:10;12.70;75.10
36374;DHT22;22399;51.346;12.372;2023-04-25T10:37:38;12.60;75.60
36374;DHT22;22399;51.346;12.372;2023-04-25T10:40:25;12.50;75.60
36374;DHT22;22399;51.346;12.372;2023-04-25T10:42:53;12.30;72.80
36374;DHT22;22399;51.346;12.372;2023-04-25T10:45:22;12.20;73.60
36374;DHT22;22399;51.346;12.372;2023-04-25T10:47:51;12.00;74.00
36374;DHT22;22399;51.346;12.372;2023-04-25T10:50:19;11.90;73.90
36374;DHT22;22399;51.346;12.372;2023-04-25T10:52:47;11.90;73.80
36374;DHT22;22399;51.346;12.372;2023-04-25T10:55:16;11.70;73.50
36374;DHT22;22399;51.346;12.372;2023-04-25T10:57:45;11.50;73.90
36374;DHT22;22399;51.346;12.372;2023-04-25T11:00:17;11.40;74.40
36374;DHT22;22399;51.346;12.372;2023-04-25T11:02:46;11.40;75.10
36374;DHT22;22399;51.346;12.372;2023-04-25T11:05:22;11.30;74.90
36374;DHT22;22399;51.346;12.372;2023-04-25T11:07:52;11.30;75.50
36374;DHT22;22399;51.346;12.372;2023-04-25T11:10:41;11.40;76.10
36374;DHT22;22399;51.346;12.372;2023-04-25T11:13:11;11.40;75.70
36374;DHT22;22399;51.346;12.372;2023-04-25T11:15:39;11.40;77.30
36374;DHT22;22399;51.346;12.372;2023-04-25T11:18:07;11.40;75.90
36374;DHT22;22399;51.346;12.372;2023-04-25T11:20:36;11.30;75.70
36374;DHT22;22399;51.346;12.372;2023-04-25T11:23:04;11.30;75.60
36374;DHT22;22399;51.346;12.372;2023-04-25T11:25:32;11.20;77.60
36374;DHT22;22399;51.346;12.372;2023-04-25T11:28:04;11.00;75.60
36374;DHT22;22399;51.346;12.372;2023-04-25T11:30:34;10.90;76.40
36374;DHT22;22399;51.346;12.372;2023-04-25T11:33:02;10.90;76.60
36374;DHT22;22399;51.346;12.372;2023-04-25T11:35:30;10.90;76.50
36374;DHT22;22399;51.346;12.372;2023-04-25T11:38:00;10.90;77.20
36374;DHT22;22399;51.346;12.372;2023-04-25T11:40:30;10.90;77.30
36374;DHT22;22399;51.346;12.372;2023-04-25T11:42:59;10.90;77.30
36374;DHT22;22399;51.346;12.372;2023-04-25T11:45:27;11.10;77.40
36374;DHT22;22399;51.346;12.372;2023-04-25T11:47:58;11.30;77.00
36374;DHT22;22399;51.346;12.372;2023-04-25T11:50:27;11.60;75.20
36374;DHT22;22399;51.346;12.372;2023-04-25T11:52:56;11.70;74.20
36374;DHT22;22399;51.346;12.372;2023-04-25T11:55:24;11.70;73.20
36374;DHT22;22399;51.346;12.372;2023-04-25T11:57:52;11.80;72.80
36374;DHT22;22399;51.346;12.372;2023-04-25T12:00:21;11.70;71.80
36374;DHT22;22399;51.346;12.372;2023-04-25T12:02:51;11.60;70.90
36374;DHT22;22399;51.346;12.372;2023-04-25T12:05:23;11.60;71.40
36374;DHT22;22399;51.346;12.372;2023-04-25T12:08:12;11.60;71.60
36374;DHT22;22399;51.346;12.372;2023-04-25T12:10:42;11.50;71.80
36374;DHT22;22399;51.346;12.372;2023-04-25T12:13:20;11.50;70.70
36374;DHT22;22399;51.346;12.372;2023-04-25T12:15:51;11.50;70.10
36374;DHT22;22399;51.346;12.372;2023-04-25T12:18:22;11.60;70.30
36374;DHT22;22399;51.346;12.372;2023-04-25T12:20:53;12.00;70.40
36374;DHT22;22399;51.346;12.372;2023-04-25T12:23:25;12.60;70.40
36374;DHT22;22399;51.346;12.372;2023-04-25T12:25:55;13.00;69.90
36374;DHT22;22399;51.346;12.372;2023-04-25T12:28:24;13.00;68.60
36374;DHT22;22399;51.346;12.372;2023-04-25T12:30:54;12.90;67.40
36374;DHT22;22399;51.346;12.372;2023-04-25T12:33:23;12.60;67.50
36374;DHT22;22399;51.346;12.372;2023-04-25T12:35:53;12.40;67.90
36374;DHT22;22399;51.346;12.372;2023-04-25T12:38:23;12.30;69.30
36374;DHT22;22399;51.346;12.372;2023-04-25T12:40:51;12.10;69.30
36374;DHT22;22399;51.346;12.372;2023-04-25T12:43:20;11.90;69.20
36374;DHT22;22399;51.346;12.372;2023-04-25T12:45:48;11.80;69.80
36374;DHT22;22399;51.346;12.372;2023-04-25T12:48:18;11.80;69.30
36374;DHT22;22399;51.346;12.372;2023-04-25T12:50:46;11.80;69.30
36374;DHT22;22399;51.346;12.372;2023-04-25T12:53:17;11.80;69.60
36374;DHT22;22399;51.346;12.372;2023-04-25T12:55:45;11.60;68.20
36374;DHT22;22399;51.346;12.372;2023-04-25T12:58:14;11.60;68.60
36374;DHT22;22399;51.346;12.372;2023-04-25T13:00:42;11.50;69.20
36374;DHT22;22399;51.346;12.372;2023-04-25T13:03:11;11.30;68.70
36374;DHT22;22399;51.346;12.372;2023-04-25T13:05:39;11.20;67.00
36374;DHT22;22399;51.346;12.372;2023-04-25T13:08:08;11.20;66.80
36374;DHT22;22399;51.346;12.372;2023-04-25T13:10:38;11.10;66.60
36374;DHT22;22399;51.346;12.372;2023-04-25T13:13:07;11.10;67.10
36374;DHT22;22399;51.346;12.372;2023-04-25T13:15:35;11.00;68.30
36374;DHT22;22399;51.346;12.372;2023-04-25T13:18:03;11.00;69.70
36374;DHT22;22399;51.346;12.372;2023-04-25T13:20:32;11.10;68.60
36374;DHT22;22399;51.346;12.372;2023-04-25T13:23:01;11.00;68.20
36374;DHT22;22399;51.346;12.372;2023-04-25T13:25:29;10.90;67.10
36374;DHT22;22399;51.346;12.372;2023-04-25T13:27:59;10.90;67.30
36374;DHT22;22399;51.346;12.372;2023-04-25T13:30:27;11.00;66.90
36374;DHT22;22399;51.346;12.372;2023-04-25T13:32:55;11.40;66.90
36374;DHT22;22399;51.346;12.372;2023-04-25T13:35:27;11.90;66.00
36374;DHT22;22399;51.346;12.372;2023-04-25T13:37:55;12.30;65.00
36374;DHT22;22399;51.346;12.372;2023-04-25T13:40:24;12.70;64.10
36374;DHT22;22399;51.346;12.372;2023-04-25T13:42:53;13.20;63.00
36374;DHT22;22399;51.346;12.372;2023-04-25T13:45:23;13.90;62.00
36374;DHT22;22399;51.346;12.372;2023-04-25T13:47:51;14.20;60.80
36374;DHT22;22399;51.346;12.372;2023-04-25T13:50:19;14.10;60.10
36374;DHT22;22399;51.346;12.372;2023-04-25T13:52:48;14.20;60.60
36374;DHT22;22399;51.346;12.372;2023-04-25T13:55:16;14.10;59.90
36374;DHT22;22399;51.346;12.372;2023-04-25T13:57:46;13.90;59.80
36374;DHT22;22399;51.346;12.372;2023-04-25T14:00:14;13.80;60.00
36374;DHT22;22399;51.346;12.372;2023-04-25T14:02:44;13.80;59.90
36374;DHT22;22399;51.346;12.372;2023-04-25T14:05:16;13.80;59.80
36374;DHT22;22399;51.346;12.372;2023-04-25T14:07:44;13.70;59.80
36374;DHT22;22399;51.346;12.372;2023-04-25T14:10:12;13.50;60.00
36374;DHT22;22399;51.346;12.372;2023-04-25T14:12:41;13.30;59.90
36374;DHT22;22399;51.346;12.372;2023-04-25T14:15:09;13.20;59.90
36374;DHT22;22399;51.346;12.372;2023-04-25T14:17:38;13.10;59.80
36374;DHT22;22399;51.346;12.372;2023-04-25T14:20:09;13.00;59.60
36374;DHT22;22399;51.346;12.372;2023-04-25T14:22:38;12.90;59.50
36374;DHT22;22399;51.346;12.372;2023-04-25T14:25:10;12.80;59.20
36374;DHT22;22399;51.346;12.372;2023-04-25T14:27:39;12.70;58.90
36374;DHT22;22399;51.346;12.372;2023-04-25T14:30:07;12.50;58.80
36374;DHT22;22399;51.346;12.372;2023-04-25T14:32:36;12.30;58.80
36374;DHT22;22399;51.346;12.372;2023-04-25T14:35:05;12.20;58.80
36374;DHT22;22399;51.346;12.372;2023-04-25T14:37:35;12.10;59.00
36374;DHT22;22399;51.346;12.372;2023-04-25T14:40:03;12.00;59.00
36374;DHT22;22399;51.346;12.372;2023-04-25T14:42:31;12.00;58.90
36374;DHT22;22399;51.346;12.372;2023-04-25T14:45:01;12.10;59.50
36374;DHT22;22399;51.346;12.372;2023-04-25T14:47:29;12.20;59.00
36374;DHT22;22399;51.346;12.372;2023-04-25T14:49:58;12.30;58.70
36374;DHT22;22399;51.346;12.372;2023-04-25T14:52:26;12.30;58.40
36374;DHT22;22399;51.346;12.372;2023-04-25T14:54:55;12.40;58.20
36374;DHT22;22399;51.346;12.372;2023-04-25T14:57:24;12.40;58.00
36374;DHT22;22399;51.346;12.372;2023-04-25T14:59:53;12.40;58.00
36374;DHT22;22399;51.346;12.372;2023-04-25T15:02:21;12.40;58.10
36374;DHT22;22399;51.346;12.372;2023-04-25T15:04:49;12.40;58.20
36374;DHT22;22399;51.346;12.372;2023-04-25T15:07:18;12.40;58.20
36374;DHT22;22399;51.346;12.372;2023-04-25T15:09:46;12.30;58.20
36374;DHT22;22399;51.346;12.372;2023-04-25T15:12:16;12.10;58.40
36374;DHT22;22399;51.346;12.372;2023-04-25T15:14:45;12.00;58.60
36374;DHT22;22399;51.346;12.372;2023-04-25T15:17:13;11.80;58.80
36374;DHT22;22399;51.346;12.372;2023-04-25T15:19:41;11.80;59.00
36374;DHT22;22399;51.346;12.372;2023-04-25T15:22:09;11.80;59.20
36374;DHT22;22399;51.346;12.372;2023-04-25T15:24:37;11.90;59.10
36374;DHT22;22399;51.346;12.372;2023-04-25T15:27:06;11.90;59.20
36374;DHT22;22399;51.346;12.372;2023-04-25T15:29:36;11.90;59.20
36374;DHT22;22399;51.346;12.372;2023-04-25T15:32:04;11.90;59.20
36374;DHT22;22399;51.346;12.372;2023-04-25T15:34:32;11.90;59.20
36374;DHT22;22399;51.346;12.372;2023-04-25T15:37:02;11.90;59.10
36374;DHT22;22399;51.346;12.372;2023-04-25T15:39:30;11.90;59.20
36374;DHT22;22399;51.346;12.372;2023-04-25T15:41:58;11.90;59.20
36374;DHT22;22399;51.346;12.372;2023-04-25T15:44:27;11.90;59.20
36374;DHT22;22399;51.346;12.372;2023-04-25T15:46:57;11.90;59.20
36374;DHT22;22399;51.346;12.372;2023-04-25T15:49:25;11.80;59.10